sensor_id;sensor_type;location;lat;lon;timestamp;pressure;altitude;pressure_sealevel;temperature;humidity
15694;BME280;7947;48.834;9.132;2024-03-23T00:52:19;97453.78;;;10.52;74.02
15694;BME280;7947;48.834;9.132;2024-03-23T00:55:23;97444.63;;;10.53;74.00
15694;BME280;7947;48.834;9.132;2024-03-23T00:58:26;97437.91;;;10.56;74.04
15694;BME280;7947;48.834;9.132;2024-03-23T01:01:31;97437.41;;;10.54;73.49
15694;BME280;7947;48.834;9.132;2024-03-23T01:04:33;97444.13;;;10.51;74.05
15694;BME280;7947;48.834;9.132;2024-03-23T01:07:36;97435.00;;;10.52;74.86
15694;BME280;7947;48.834;9.132;2024-03-23T01:10:38;97433.56;;;10.60;74.84
15694;BME280;7947;48.834;9.132;2024-03-23T01:13:41;97434.47;;;10.69;75.28
15694;BME280;7947;48.834;9.132;2024-03-23T01:16:45;97411.78;;;10.80;75.03
15694;BME280;7947;48.834;9.132;2024-03-23T01:19:47;97406.47;;;10.94;74.58
15694;BME280;7947;48.834;9.132;2024-03-23T01:22:50;97400.34;;;11.07;73.76
15694;BME280;7947;48.834;9.132;2024-03-23T01:25:53;97407.97;;;11.13;73.94
15694;BME280;7947;48.834;9.132;2024-03-23T01:28:54;97400.34;;;11.20;73.37
15694;BME280;7947;48.834;9.132;2024-03-23T01:31:59;97396.09;;;11.33;72.71
15694;BME280;7947;48.834;9.132;2024-03-23T01:35:00;97399.38;;;11.43;72.35
15694;BME280;7947;48.834;9.132;2024-03-23T01:38:03;97384.16;;;11.52;72.65
15694;BME280;7947;48.834;9.132;2024-03-23T01:41:05;97386.78;;;11.57;72.45
15694;BME280;7947;48.834;9.132;2024-03-23T01:44:08;97381.19;;;11.67;72.15
15694;BME280;7947;48.834;9.132;2024-03-23T01:47:13;97367.69;;;11.72;71.36
15694;BME280;7947;48.834;9.132;2024-03-23T01:50:15;97364.78;;;11.83;70.74
15694;BME280;7947;48.834;9.132;2024-03-23T01:53:18;97365.22;;;11.98;70.13
15694;BME280;7947;48.834;9.132;2024-03-23T01:56:23;97349.19;;;12.07;69.89
15694;BME280;7947;48.834;9.132;2024-03-23T01:59:24;97336.03;;;12.19;69.03
15694;BME280;7947;48.834;9.132;2024-03-23T02:02:29;97343.06;;;12.28;69.02
15694;BME280;7947;48.834;9.132;2024-03-23T02:05:32;97340.31;;;12.42;68.13
15694;BME280;7947;48.834;9.132;2024-03-23T02:08:34;97338.63;;;12.46;68.51
15694;BME280;7947;48.834;9.132;2024-03-23T02:11:37;97325.84;;;12.51;67.88
15694;BME280;7947;48.834;9.132;2024-03-23T02:14:40;97329.75;;;12.67;67.33
15694;BME280;7947;48.834;9.132;2024-03-23T02:17:43;97332.16;;;12.78;66.22
15694;BME280;7947;48.834;9.132;2024-03-23T02:20:46;97319.50;;;12.78;66.52
15694;BME280;7947;48.834;9.132;2024-03-23T02:23:51;97316.72;;;12.83;66.43
15694;BME280;7947;48.834;9.132;2024-03-23T02:26:54;97319.88;;;12.85;66.14
15694;BME280;7947;48.834;9.132;2024-03-23T02:29:57;97308.97;;;12.90;66.41
15694;BME280;7947;48.834;9.132;2024-03-23T02:33:01;97311.19;;;12.88;66.71
15694;BME280;7947;48.834;9.132;2024-03-23T02:36:03;97307.69;;;12.88;66.65
15694;BME280;7947;48.834;9.132;2024-03-23T02:39:07;97310.75;;;12.95;65.48
15694;BME280;7947;48.834;9.132;2024-03-23T02:42:09;97315.44;;;13.11;64.43
15694;BME280;7947;48.834;9.132;2024-03-23T02:45:12;97310.06;;;13.11;64.62
15694;BME280;7947;48.834;9.132;2024-03-23T02:48:14;97302.13;;;13.15;64.60
15694;BME280;7947;48.834;9.132;2024-03-23T02:51:17;97297.72;;;13.19;64.07
15694;BME280;7947;48.834;9.132;2024-03-23T02:54:20;97295.03;;;13.19;64.27
15694;BME280;7947;48.834;9.132;2024-03-23T02:57:23;97300.19;;;13.07;64.96
15694;BME280;7947;48.834;9.132;2024-03-23T03:00:25;97296.81;;;12.93;65.69
15694;BME280;7947;48.834;9.132;2024-03-23T03:03:27;97287.59;;;12.85;66.65
15694;BME280;7947;48.834;9.132;2024-03-23T03:06:31;97301.31;;;12.75;67.26
15694;BME280;7947;48.834;9.132;2024-03-23T03:09:36;97284.94;;;12.63;67.41
15694;BME280;7947;48.834;9.132;2024-03-23T03:12:40;97290.25;;;12.54;67.57
15694;BME280;7947;48.834;9.132;2024-03-23T03:15:43;97276.13;;;12.49;68.64
15694;BME280;7947;48.834;9.132;2024-03-23T03:18:45;97267.25;;;12.40;68.74
15694;BME280;7947;48.834;9.132;2024-03-23T03:21:48;97266.19;;;12.27;68.84
15694;BME280;7947;48.834;9.132;2024-03-23T03:24:52;97268.03;;;12.18;69.77
15694;BME280;7947;48.834;9.132;2024-03-23T03:27:56;97258.31;;;12.09;69.46
15694;BME280;7947;48.834;9.132;2024-03-23T03:31:01;97260.34;;;12.03;69.88
15694;BME280;7947;48.834;9.132;2024-03-23T03:34:04;97256.66;;;11.99;70.22
15694;BME280;7947;48.834;9.132;2024-03-23T03:37:06;97256.81;;;11.94;70.37
15694;BME280;7947;48.834;9.132;2024-03-23T03:40:12;97263.00;;;11.81;70.61
15694;BME280;7947;48.834;9.132;2024-03-23T03:43:14;97252.56;;;11.79;71.35
15694;BME280;7947;48.834;9.132;2024-03-23T03:46:17;97251.00;;;11.78;71.75
15694;BME280;7947;48.834;9.132;2024-03-23T03:49:18;97238.94;;;11.76;72.26
15694;BME280;7947;48.834;9.132;2024-03-23T03:52:22;97222.41;;;11.83;72.66
15694;BME280;7947;48.834;9.132;2024-03-23T03:55:26;97214.22;;;11.88;72.48
15694;BME280;7947;48.834;9.132;2024-03-23T03:58:28;97204.56;;;11.87;70.77
15694;BME280;7947;48.834;9.132;2024-03-23T04:01:31;97200.53;;;11.75;70.69
15694;BME280;7947;48.834;9.132;2024-03-23T04:04:33;97207.44;;;11.68;71.30
15694;BME280;7947;48.834;9.132;2024-03-23T04:07:36;97187.75;;;11.59;72.29
15694;BME280;7947;48.834;9.132;2024-03-23T04:10:40;97191.03;;;11.56;73.65
15694;BME280;7947;48.834;9.132;2024-03-23T04:13:43;97180.78;;;11.58;73.33
15694;BME280;7947;48.834;9.132;2024-03-23T04:16:46;97168.19;;;11.45;74.62
15694;BME280;7947;48.834;9.132;2024-03-23T04:19:48;97172.09;;;11.39;76.16
15694;BME280;7947;48.834;9.132;2024-03-23T04:22:53;97192.50;;;11.40;77.42
15694;BME280;7947;48.834;9.132;2024-03-23T04:26:03;97227.25;;;11.45;78.53
15694;BME280;7947;48.834;9.132;2024-03-23T04:29:04;97264.63;;;11.68;76.76
15694;BME280;7947;48.834;9.132;2024-03-23T04:32:07;97252.69;;;11.61;80.03
15694;BME280;7947;48.834;9.132;2024-03-23T04:35:09;97265.34;;;11.47;82.27
15694;BME280;7947;48.834;9.132;2024-03-23T04:38:12;97250.31;;;11.46;84.63
15694;BME280;7947;48.834;9.132;2024-03-23T04:41:16;97250.75;;;11.39;86.91
15694;BME280;7947;48.834;9.132;2024-03-23T04:44:20;97251.06;;;11.38;88.47
15694;BME280;7947;48.834;9.132;2024-03-23T04:47:23;97241.50;;;11.32;89.01
15694;BME280;7947;48.834;9.132;2024-03-23T04:50:26;97250.75;;;11.39;90.05
15694;BME280;7947;48.834;9.132;2024-03-23T04:53:29;97255.81;;;11.41;90.02
15694;BME280;7947;48.834;9.132;2024-03-23T04:56:34;97254.72;;;11.42;90.50
15694;BME280;7947;48.834;9.132;2024-03-23T04:59:37;97245.16;;;11.49;90.75
15694;BME280;7947;48.834;9.132;2024-03-23T05:02:39;97263.25;;;11.57;91.21
15694;BME280;7947;48.834;9.132;2024-03-23T05:05:42;97252.59;;;11.66;90.19
15694;BME280;7947;48.834;9.132;2024-03-23T05:08:45;97254.75;;;11.64;89.00
15694;BME280;7947;48.834;9.132;2024-03-23T05:11:49;97265.72;;;11.67;88.99
15694;BME280;7947;48.834;9.132;2024-03-23T05:14:52;97263.13;;;11.62;88.17
15694;BME280;7947;48.834;9.132;2024-03-23T05:17:53;97252.50;;;11.57;88.35
15694;BME280;7947;48.834;9.132;2024-03-23T05:20:56;97264.44;;;11.51;88.29
15694;BME280;7947;48.834;9.132;2024-03-23T05:23:56;97263.53;;;11.56;88.61
15694;BME280;7947;48.834;9.132;2024-03-23T05:27:00;97285.69;;;11.61;87.77
15694;BME280;7947;48.834;9.132;2024-03-23T05:30:01;97267.31;;;11.55;88.41
15694;BME280;7947;48.834;9.132;2024-03-23T05:33:04;97270.38;;;11.62;87.52
15694;BME280;7947;48.834;9.132;2024-03-23T05:36:05;97266.22;;;11.56;87.02
15694;BME280;7947;48.834;9.132;2024-03-23T05:39:11;97279.56;;;11.47;86.99
15694;BME280;7947;48.834;9.132;2024-03-23T05:42:13;97293.09;;;11.42;86.51
15694;BME280;7947;48.834;9.132;2024-03-23T05:45:15;97304.13;;;11.41;86.08
15694;BME280;7947;48.834;9.132;2024-03-23T05:48:19;97315.69;;;11.28;86.74
15694;BME280;7947;48.834;9.132;2024-03-23T05:51:20;97332.34;;;11.25;85.63
15694;BME280;7947;48.834;9.132;2024-03-23T05:54:21;97337.34;;;11.18;86.64
15694;BME280;7947;48.834;9.132;2024-03-23T05:57:24;97313.19;;;11.04;86.64
15694;BME280;7947;48.834;9.132;2024-03-23T06:00:26;97310.28;;;11.01;86.26
15694;BME280;7947;48.834;9.132;2024-03-23T06:03:29;97324.19;;;10.89;86.42
15694;BME280;7947;48.834;9.132;2024-03-23T06:06:30;97327.69;;;10.89;84.60
15694;BME280;7947;48.834;9.132;2024-03-23T06:09:32;97328.44;;;10.90;84.16
15694;BME280;7947;48.834;9.132;2024-03-23T06:12:34;97331.25;;;10.85;84.27
15694;BME280;7947;48.834;9.132;2024-03-23T06:15:36;97344.44;;;10.81;84.29
15694;BME280;7947;48.834;9.132;2024-03-23T06:18:39;97351.50;;;10.77;83.70
15694;BME280;7947;48.834;9.132;2024-03-23T06:21:43;97353.66;;;10.75;83.45
15694;BME280;7947;48.834;9.132;2024-03-23T06:24:44;97341.44;;;10.69;84.26
15694;BME280;7947;48.834;9.132;2024-03-23T06:27:47;97350.47;;;10.73;84.02
15694;BME280;7947;48.834;9.132;2024-03-23T06:30:48;97368.25;;;10.69;83.69
15694;BME280;7947;48.834;9.132;2024-03-23T06:33:49;97386.22;;;10.69;81.35
15694;BME280;7947;48.834;9.132;2024-03-23T06:36:51;97402.97;;;10.61;82.03
15694;BME280;7947;48.834;9.132;2024-03-23T06:39:52;97408.31;;;10.61;81.70
15694;BME280;7947;48.834;9.132;2024-03-23T06:42:55;97416.97;;;10.58;81.27
15694;BME280;7947;48.834;9.132;2024-03-23T06:45:56;97424.50;;;10.56;81.72
15694;BME280;7947;48.834;9.132;2024-03-23T06:48:58;97429.56;;;10.57;80.70
15694;BME280;7947;48.834;9.132;2024-03-23T06:51:58;97424.34;;;10.47;81.93
15694;BME280;7947;48.834;9.132;2024-03-23T06:55:00;97430.16;;;10.54;81.95
15694;BME280;7947;48.834;9.132;2024-03-23T06:58:06;97441.59;;;10.60;80.95
15694;BME280;7947;48.834;9.132;2024-03-23T07:01:07;97442.75;;;10.54;81.24
15694;BME280;7947;48.834;9.132;2024-03-23T07:04:08;97452.16;;;10.51;81.04
15694;BME280;7947;48.834;9.132;2024-03-23T07:07:09;97474.00;;;10.45;80.58
15694;BME280;7947;48.834;9.132;2024-03-23T07:10:12;97472.34;;;10.49;80.78
15694;BME280;7947;48.834;9.132;2024-03-23T07:13:14;97488.03;;;10.55;80.87
15694;BME280;7947;48.834;9.132;2024-03-23T07:16:17;97496.88;;;10.56;80.43
15694;BME280;7947;48.834;9.132;2024-03-23T07:19:18;97511.44;;;10.50;81.97
15694;BME280;7947;48.834;9.132;2024-03-23T07:22:20;97514.56;;;10.57;81.02
15694;BME280;7947;48.834;9.132;2024-03-23T07:25:22;97518.16;;;10.47;81.33
15694;BME280;7947;48.834;9.132;2024-03-23T07:28:25;97516.59;;;10.46;80.89
15694;BME280;7947;48.834;9.132;2024-03-23T07:31:27;97522.44;;;10.30;80.68
15694;BME280;7947;48.834;9.132;2024-03-23T07:34:28;97521.44;;;10.26;81.46
15694;BME280;7947;48.834;9.132;2024-03-23T07:37:30;97531.03;;;10.27;80.38
15694;BME280;7947;48.834;9.132;2024-03-23T07:40:31;97544.38;;;10.32;79.96
15694;BME280;7947;48.834;9.132;2024-03-23T07:43:34;97556.53;;;10.24;80.61
15694;BME280;7947;48.834;9.132;2024-03-23T07:46:35;97551.22;;;10.19;79.96
15694;BME280;7947;48.834;9.132;2024-03-23T07:49:37;97565.44;;;10.20;81.33
15694;BME280;7947;48.834;9.132;2024-03-23T07:52:40;97581.84;;;10.13;81.56
15694;BME280;7947;48.834;9.132;2024-03-23T07:55:41;97582.94;;;10.07;81.13
15694;BME280;7947;48.834;9.132;2024-03-23T07:58:45;97590.06;;;9.93;81.67
15694;BME280;7947;48.834;9.132;2024-03-23T08:01:46;97588.47;;;9.92;83.11
15694;BME280;7947;48.834;9.132;2024-03-23T08:04:48;97584.66;;;9.98;83.50
15694;BME280;7947;48.834;9.132;2024-03-23T08:07:50;97584.06;;;10.01;84.07
15694;BME280;7947;48.834;9.132;2024-03-23T08:10:52;97589.66;;;10.10;84.67
15694;BME280;7947;48.834;9.132;2024-03-23T08:13:55;97608.16;;;10.06;83.09
15694;BME280;7947;48.834;9.132;2024-03-23T08:16:56;97621.03;;;10.04;83.70
15694;BME280;7947;48.834;9.132;2024-03-23T08:19:57;97630.66;;;10.05;83.58
15694;BME280;7947;48.834;9.132;2024-03-23T08:22:58;97625.34;;;10.00;83.61
15694;BME280;7947;48.834;9.132;2024-03-23T08:26:00;97620.16;;;10.09;81.45
15694;BME280;7947;48.834;9.132;2024-03-23T08:29:04;97639.78;;;10.04;78.26
15694;BME280;7947;48.834;9.132;2024-03-23T08:32:05;97650.00;;;9.97;77.73
15694;BME280;7947;48.834;9.132;2024-03-23T08:35:08;97674.16;;;9.92;75.26
15694;BME280;7947;48.834;9.132;2024-03-23T08:38:09;97690.84;;;9.84;77.72
15694;BME280;7947;48.834;9.132;2024-03-23T08:41:11;97700.19;;;9.86;79.51
15694;BME280;7947;48.834;9.132;2024-03-23T08:44:13;97703.41;;;9.88;79.74
15694;BME280;7947;48.834;9.132;2024-03-23T08:47:15;97705.78;;;9.90;79.36
15694;BME280;7947;48.834;9.132;2024-03-23T08:50:16;97702.34;;;9.84;78.71
15694;BME280;7947;48.834;9.132;2024-03-23T08:53:18;97708.34;;;9.71;80.05
15694;BME280;7947;48.834;9.132;2024-03-23T08:56:19;97693.16;;;9.62;79.66
15694;BME280;7947;48.834;9.132;2024-03-23T08:59:22;97708.13;;;9.63;78.80
15694;BME280;7947;48.834;9.132;2024-03-23T09:02:24;97687.00;;;9.61;78.94
15694;BME280;7947;48.834;9.132;2024-03-23T09:05:26;97720.28;;;9.89;80.30
15694;BME280;7947;48.834;9.132;2024-03-23T09:08:26;97729.59;;;9.91;80.50
15694;BME280;7947;48.834;9.132;2024-03-23T09:11:28;97734.72;;;9.88;77.94
15694;BME280;7947;48.834;9.132;2024-03-23T09:14:30;97740.03;;;9.93;76.86
15694;BME280;7947;48.834;9.132;2024-03-23T09:17:32;97757.34;;;10.11;76.53
15694;BME280;7947;48.834;9.132;2024-03-23T09:20:34;97770.72;;;10.44;73.93
15694;BME280;7947;48.834;9.132;2024-03-23T09:23:38;97773.22;;;10.64;74.12
15694;BME280;7947;48.834;9.132;2024-03-23T09:26:41;97778.06;;;10.62;72.78
15694;BME280;7947;48.834;9.132;2024-03-23T09:29:47;97776.16;;;10.63;72.49
15694;BME280;7947;48.834;9.132;2024-03-23T09:32:51;97768.84;;;10.73;71.94
15694;BME280;7947;48.834;9.132;2024-03-23T09:35:54;97768.72;;;10.83;72.48
15694;BME280;7947;48.834;9.132;2024-03-23T09:38:58;97773.41;;;10.97;71.35
15694;BME280;7947;48.834;9.132;2024-03-23T09:42:01;97766.59;;;10.80;72.19
15694;BME280;7947;48.834;9.132;2024-03-23T09:45:12;97769.28;;;10.80;72.62
15694;BME280;7947;48.834;9.132;2024-03-23T09:48:19;97766.56;;;10.85;72.12
15694;BME280;7947;48.834;9.132;2024-03-23T09:51:24;97764.66;;;10.86;72.77
15694;BME280;7947;48.834;9.132;2024-03-23T09:54:28;97762.34;;;10.79;70.73
15694;BME280;7947;48.834;9.132;2024-03-23T09:57:31;97767.22;;;10.72;71.85
15694;BME280;7947;48.834;9.132;2024-03-23T10:00:37;97773.34;;;10.78;71.28
15694;BME280;7947;48.834;9.132;2024-03-23T10:03:43;97776.25;;;10.81;69.28
15694;BME280;7947;48.834;9.132;2024-03-23T10:06:48;97768.22;;;10.81;71.47
15694;BME280;7947;48.834;9.132;2024-03-23T10:09:51;97765.59;;;11.00;71.97
15694;BME280;7947;48.834;9.132;2024-03-23T10:12:56;97759.19;;;11.38;61.52
15694;BME280;7947;48.834;9.132;2024-03-23T10:16:01;97745.13;;;12.02;63.01
15694;BME280;7947;48.834;9.132;2024-03-23T10:19:06;97744.47;;;12.42;55.41
15694;BME280;7947;48.834;9.132;2024-03-23T10:22:13;97739.59;;;12.44;54.55
15694;BME280;7947;48.834;9.132;2024-03-23T10:25:17;97747.84;;;12.34;53.54
15694;BME280;7947;48.834;9.132;2024-03-23T10:28:24;97744.00;;;12.22;54.63
15694;BME280;7947;48.834;9.132;2024-03-23T10:31:31;97737.41;;;12.14;55.11
15694;BME280;7947;48.834;9.132;2024-03-23T10:34:36;97737.66;;;11.99;54.40
15694;BME280;7947;48.834;9.132;2024-03-23T10:37:41;97736.25;;;11.88;56.09
15694;BME280;7947;48.834;9.132;2024-03-23T10:40:45;97745.09;;;11.70;54.14
15694;BME280;7947;48.834;9.132;2024-03-23T10:43:49;97762.56;;;11.49;57.71
15694;BME280;7947;48.834;9.132;2024-03-23T10:46:54;97793.22;;;11.24;58.37
15694;BME280;7947;48.834;9.132;2024-03-23T10:50:01;97827.25;;;10.76;61.04
15694;BME280;7947;48.834;9.132;2024-03-23T10:53:05;97839.16;;;10.32;65.31
15694;BME280;7947;48.834;9.132;2024-03-23T10:56:10;97859.00;;;9.87;67.83
15694;BME280;7947;48.834;9.132;2024-03-23T10:59:15;97861.34;;;9.50;71.15
15694;BME280;7947;48.834;9.132;2024-03-23T11:02:23;97883.69;;;9.00;74.54
15694;BME280;7947;48.834;9.132;2024-03-23T11:05:30;97885.84;;;8.63;76.98
15694;BME280;7947;48.834;9.132;2024-03-23T11:08:35;97850.84;;;8.39;78.39
15694;BME280;7947;48.834;9.132;2024-03-23T11:11:39;97855.66;;;8.37;78.24
15694;BME280;7947;48.834;9.132;2024-03-23T11:14:42;97837.75;;;8.48;80.42
15694;BME280;7947;48.834;9.132;2024-03-23T11:18:05;97824.91;;;8.70;81.10
15694;BME280;7947;48.834;9.132;2024-03-23T11:21:10;97831.03;;;8.85;80.22
15694;BME280;7947;48.834;9.132;2024-03-23T11:24:15;97819.44;;;9.15;81.25
15694;BME280;7947;48.834;9.132;2024-03-23T11:27:18;97816.56;;;9.65;80.25
15694;BME280;7947;48.834;9.132;2024-03-23T11:30:24;97828.91;;;10.10;76.18
15694;BME280;7947;48.834;9.132;2024-03-23T11:33:29;97814.59;;;10.53;75.65
15694;BME280;7947;48.834;9.132;2024-03-23T11:36:33;97816.16;;;11.12;74.70
15694;BME280;7947;48.834;9.132;2024-03-23T11:39:36;97818.56;;;11.37;70.96
15694;BME280;7947;48.834;9.132;2024-03-23T11:42:40;97809.88;;;11.45;70.25
15694;BME280;7947;48.834;9.132;2024-03-23T11:45:45;97809.56;;;11.46;71.13
15694;BME280;7947;48.834;9.132;2024-03-23T11:48:51;97803.31;;;11.32;69.14
15694;BME280;7947;48.834;9.132;2024-03-23T11:51:56;97797.25;;;11.22;69.08
15694;BME280;7947;48.834;9.132;2024-03-23T11:55:06;97805.13;;;11.13;67.88
15694;BME280;7947;48.834;9.132;2024-03-23T11:58:11;97793.38;;;11.09;67.22
15694;BME280;7947;48.834;9.132;2024-03-23T12:01:16;97793.63;;;11.13;67.70
15694;BME280;7947;48.834;9.132;2024-03-23T12:04:27;97795.53;;;11.07;66.69
15694;BME280;7947;48.834;9.132;2024-03-23T12:07:31;97790.31;;;10.97;60.85
15694;BME280;7947;48.834;9.132;2024-03-23T12:10:36;97785.34;;;10.85;62.01
15694;BME280;7947;48.834;9.132;2024-03-23T12:13:41;97778.78;;;10.97;64.47
15694;BME280;7947;48.834;9.132;2024-03-23T12:16:44;97773.22;;;11.35;58.42
15694;BME280;7947;48.834;9.132;2024-03-23T12:19:48;97775.78;;;11.64;56.72
15694;BME280;7947;48.834;9.132;2024-03-23T12:23:05;97778.72;;;11.86;55.15
15694;BME280;7947;48.834;9.132;2024-03-23T12:26:11;97771.88;;;11.94;54.89
15694;BME280;7947;48.834;9.132;2024-03-23T12:29:14;97769.56;;;11.87;55.32
15694;BME280;7947;48.834;9.132;2024-03-23T12:32:17;97758.25;;;11.90;55.63
15694;BME280;7947;48.834;9.132;2024-03-23T12:35:20;97761.94;;;11.94;54.69
15694;BME280;7947;48.834;9.132;2024-03-23T12:38:21;97757.09;;;11.96;53.56
15694;BME280;7947;48.834;9.132;2024-03-23T12:41:24;97767.25;;;11.81;53.41
15694;BME280;7947;48.834;9.132;2024-03-23T12:44:24;97762.44;;;11.77;55.19
15694;BME280;7947;48.834;9.132;2024-03-23T12:47:26;97772.63;;;11.81;54.09
15694;BME280;7947;48.834;9.132;2024-03-23T12:50:28;97767.72;;;11.64;52.82
15694;BME280;7947;48.834;9.132;2024-03-23T12:53:30;97782.81;;;11.60;53.07
15694;BME280;7947;48.834;9.132;2024-03-23T12:56:31;97769.88;;;11.67;55.83
15694;BME280;7947;48.834;9.132;2024-03-23T12:59:34;97763.47;;;11.82;57.28
15694;BME280;7947;48.834;9.132;2024-03-23T13:02:36;97766.50;;;11.94;56.46
15694;BME280;7947;48.834;9.132;2024-03-23T13:05:39;97750.25;;;12.04;55.86
15694;BME280;7947;48.834;9.132;2024-03-23T13:08:41;97741.09;;;12.50;56.52
15694;BME280;7947;48.834;9.132;2024-03-23T13:11:43;97742.94;;;12.96;51.01
15694;BME280;7947;48.834;9.132;2024-03-23T13:14:46;97744.06;;;12.95;50.32
15694;BME280;7947;48.834;9.132;2024-03-23T13:17:47;97739.47;;;13.09;51.42
15694;BME280;7947;48.834;9.132;2024-03-23T13:20:50;97726.38;;;13.43;48.82
15694;BME280;7947;48.834;9.132;2024-03-23T13:23:51;97727.41;;;13.69;46.91
15694;BME280;7947;48.834;9.132;2024-03-23T13:26:54;97745.09;;;13.62;43.66
15694;BME280;7947;48.834;9.132;2024-03-23T13:29:55;97722.75;;;13.47;45.11
15694;BME280;7947;48.834;9.132;2024-03-23T13:32:57;97711.66;;;13.63;43.76
15694;BME280;7947;48.834;9.132;2024-03-23T13:35:59;97703.09;;;13.61;43.41
15694;BME280;7947;48.834;9.132;2024-03-23T13:39:02;97690.16;;;13.71;44.06
15694;BME280;7947;48.834;9.132;2024-03-23T13:42:06;97691.66;;;13.99;42.90
15694;BME280;7947;48.834;9.132;2024-03-23T13:45:09;97684.16;;;14.40;43.45
15694;BME280;7947;48.834;9.132;2024-03-23T13:48:19;97688.47;;;14.50;43.16
15694;BME280;7947;48.834;9.132;2024-03-23T13:51:25;97702.59;;;14.25;44.27
15694;BME280;7947;48.834;9.132;2024-03-23T13:54:27;97717.19;;;13.80;45.50
15694;BME280;7947;48.834;9.132;2024-03-23T13:57:29;97767.78;;;12.93;49.83
15694;BME280;7947;48.834;9.132;2024-03-23T14:00:30;97765.06;;;12.01;56.07
15694;BME280;7947;48.834;9.132;2024-03-23T14:03:33;97783.16;;;11.11;60.65
15694;BME280;7947;48.834;9.132;2024-03-23T14:06:35;97811.13;;;10.19;65.05
15694;BME280;7947;48.834;9.132;2024-03-23T14:09:37;97807.28;;;9.43;69.65
15694;BME280;7947;48.834;9.132;2024-03-23T14:12:39;97809.66;;;8.80;72.97
15694;BME280;7947;48.834;9.132;2024-03-23T14:15:42;97839.63;;;8.42;75.01
15694;BME280;7947;48.834;9.132;2024-03-23T14:18:46;97838.25;;;8.04;76.58
15694;BME280;7947;48.834;9.132;2024-03-23T14:21:49;97821.38;;;7.79;77.31
15694;BME280;7947;48.834;9.132;2024-03-23T14:24:50;97805.59;;;7.67;78.13
15694;BME280;7947;48.834;9.132;2024-03-23T14:27:52;97764.78;;;7.92;80.14
15694;BME280;7947;48.834;9.132;2024-03-23T14:30:55;97753.28;;;8.62;83.76
15694;BME280;7947;48.834;9.132;2024-03-23T14:33:57;97739.16;;;9.25;82.75
15694;BME280;7947;48.834;9.132;2024-03-23T14:37:00;97717.91;;;9.82;81.31
15694;BME280;7947;48.834;9.132;2024-03-23T14:40:03;97719.38;;;10.32;78.39
15694;BME280;7947;48.834;9.132;2024-03-23T14:43:04;97731.72;;;10.80;77.13
15694;BME280;7947;48.834;9.132;2024-03-23T14:46:07;97727.81;;;11.15;72.03
15694;BME280;7947;48.834;9.132;2024-03-23T14:49:08;97723.94;;;11.26;70.43
15694;BME280;7947;48.834;9.132;2024-03-23T14:52:12;97735.97;;;11.29;68.54
15694;BME280;7947;48.834;9.132;2024-03-23T14:55:13;97737.31;;;11.08;68.46
15694;BME280;7947;48.834;9.132;2024-03-23T14:58:15;97746.47;;;10.83;69.98
15694;BME280;7947;48.834;9.132;2024-03-23T15:01:16;97747.13;;;10.46;68.96
15694;BME280;7947;48.834;9.132;2024-03-23T15:04:18;97757.69;;;10.33;69.78
15694;BME280;7947;48.834;9.132;2024-03-23T15:07:21;97764.25;;;10.17;69.36
15694;BME280;7947;48.834;9.132;2024-03-23T15:10:23;97770.53;;;9.97;69.98
15694;BME280;7947;48.834;9.132;2024-03-23T15:13:25;97756.84;;;10.03;70.50
15694;BME280;7947;48.834;9.132;2024-03-23T15:16:27;97747.16;;;10.13;69.08
15694;BME280;7947;48.834;9.132;2024-03-23T15:19:29;97742.03;;;10.16;69.20
15694;BME280;7947;48.834;9.132;2024-03-23T15:22:31;97737.31;;;10.32;69.94
15694;BME280;7947;48.834;9.132;2024-03-23T15:25:33;97724.34;;;10.44;68.20
15694;BME280;7947;48.834;9.132;2024-03-23T15:28:34;97722.75;;;10.43;68.23
15694;BME280;7947;48.834;9.132;2024-03-23T15:31:44;97717.06;;;10.49;68.07
15694;BME280;7947;48.834;9.132;2024-03-23T15:34:46;97713.25;;;10.55;67.02
15694;BME280;7947;48.834;9.132;2024-03-23T15:37:50;97713.94;;;10.66;66.68
15694;BME280;7947;48.834;9.132;2024-03-23T15:40:51;97707.19;;;10.68;65.43
15694;BME280;7947;48.834;9.132;2024-03-23T15:43:53;97720.34;;;10.70;64.55
15694;BME280;7947;48.834;9.132;2024-03-23T15:46:54;97720.13;;;10.66;65.61
15694;BME280;7947;48.834;9.132;2024-03-23T15:49:56;97726.59;;;10.60;63.86
15694;BME280;7947;48.834;9.132;2024-03-23T15:52:58;97721.78;;;10.57;64.22
15694;BME280;7947;48.834;9.132;2024-03-23T15:56:01;97710.25;;;10.57;66.52
15694;BME280;7947;48.834;9.132;2024-03-23T15:59:03;97705.59;;;10.67;64.05
15694;BME280;7947;48.834;9.132;2024-03-23T16:02:06;97701.34;;;10.66;64.31
15694;BME280;7947;48.834;9.132;2024-03-23T16:05:08;97694.81;;;10.72;64.19
15694;BME280;7947;48.834;9.132;2024-03-23T16:08:13;97698.59;;;10.71;63.53
15694;BME280;7947;48.834;9.132;2024-03-23T16:11:15;97690.63;;;10.66;63.29
15694;BME280;7947;48.834;9.132;2024-03-23T16:14:16;97699.16;;;10.68;62.95
15694;BME280;7947;48.834;9.132;2024-03-23T16:17:17;97676.00;;;10.54;63.38
15694;BME280;7947;48.834;9.132;2024-03-23T16:20:18;97682.38;;;10.34;64.64
15694;BME280;7947;48.834;9.132;2024-03-23T16:23:23;97687.66;;;10.16;63.91
15694;BME280;7947;48.834;9.132;2024-03-23T16:26:25;97691.75;;;10.03;64.69
15694;BME280;7947;48.834;9.132;2024-03-23T16:29:27;97686.38;;;10.03;62.26
15694;BME280;7947;48.834;9.132;2024-03-23T16:32:28;97692.44;;;9.85;61.67
15694;BME280;7947;48.834;9.132;2024-03-23T16:35:32;97697.06;;;9.74;62.90
15694;BME280;7947;48.834;9.132;2024-03-23T16:38:35;97699.53;;;9.71;59.94
15694;BME280;7947;48.834;9.132;2024-03-23T16:41:37;97727.34;;;9.70;60.53
15694;BME280;7947;48.834;9.132;2024-03-23T16:44:39;97737.34;;;9.59;64.58
15694;BME280;7947;48.834;9.132;2024-03-23T16:47:40;97752.78;;;9.29;67.04
15694;BME280;7947;48.834;9.132;2024-03-23T16:50:42;97732.03;;;9.05;70.07
15694;BME280;7947;48.834;9.132;2024-03-23T16:53:45;97721.69;;;8.84;71.29
15694;BME280;7947;48.834;9.132;2024-03-23T16:56:47;97732.91;;;8.86;71.94
15694;BME280;7947;48.834;9.132;2024-03-23T16:59:47;97722.22;;;8.86;72.77
15694;BME280;7947;48.834;9.132;2024-03-23T17:02:49;97706.16;;;8.81;71.83
15694;BME280;7947;48.834;9.132;2024-03-23T17:05:50;97710.75;;;8.75;71.32
15694;BME280;7947;48.834;9.132;2024-03-23T17:08:54;97710.75;;;8.65;69.98
15694;BME280;7947;48.834;9.132;2024-03-23T17:11:55;97727.63;;;8.61;70.16
15694;BME280;7947;48.834;9.132;2024-03-23T17:14:56;97749.84;;;8.46;70.86